Time;durP1;ratioP1;P1;durP2;ratioP2;P2;SDS_P1;SDS_P2;PMS_P1;PMS_P2;Temp;Humidity;BMP_temperature;BMP_pressure;BME280_temperature;BME280_humidity;BME280_pressure;Samples;Min_cycle;Max_cycle;Signal;HPM_P1;HPM_P2
2022/11/12 00:04:16;;;;;;;12.70;7.60;;;22.40;63.50;;;;;;214972;1284;24247;-54
2022/11/12 00:10:26;;;;;;;13.30;8.20;;;22.40;63.10;;;;;;214919;1300;22658;-53
2022/11/12 00:15:58;;;;;;;15.30;8.00;;;22.40;63.00;;;;;;215127;1282;24235;-52
2022/11/12 00:21:30;;;;;;;12.90;7.70;;;22.40;63.00;;;;;;214883;1279;24246;-53
2022/11/12 00:27:07;;;;;;;10.70;7.40;;;22.40;63.20;;;;;;214995;1283;25711;-54
2022/11/12 00:32:56;;;;;;;11.40;7.90;;;22.30;63.60;;;;;;214989;1299;22669;-53
2022/11/12 00:38:43;;;;;;;11.10;7.50;;;22.20;63.60;;;;;;214650;1288;24213;-52
2022/11/12 00:44:30;;;;;;;11.60;7.70;;;22.10;63.50;;;;;;216232;1287;22702;-54
2022/11/12 00:50:14;;;;;;;11.90;7.60;;;22.00;63.80;;;;;;214928;1280;24434;-54
2022/11/12 00:55:47;;;;;;;15.50;8.30;;;21.90;63.80;;;;;;215082;1275;22609;-54
2022/11/12 01:01:18;;;;;;;13.10;7.80;;;21.90;63.80;;;;;;214960;1284;24294;-55
2022/11/12 01:06:45;;;;;;;12.00;7.90;;;21.80;64.00;;;;;;215003;1282;22571;-55
2022/11/12 01:12:15;;;;;;;10.70;7.50;;;21.70;64.30;;;;;;214972;1279;24278;-55
2022/11/12 01:17:53;;;;;;;11.30;7.70;;;21.60;64.40;;;;;;214923;1291;24235;-54
2022/11/12 01:23:42;;;;;;;10.60;7.40;;;21.50;64.30;;;;;;215110;1289;22482;-53
2022/11/12 01:29:13;;;;;;;11.80;7.60;;;21.50;64.60;;;;;;215051;1276;24378;-54
2022/11/12 01:34:37;;;;;;;10.30;7.20;;;21.50;64.70;;;;;;215043;1279;24247;-55
2022/11/12 01:40:01;;;;;;;11.60;7.90;;;21.40;64.70;;;;;;215079;1286;24223;-53
2022/11/12 01:45:25;;;;;;;11.20;7.70;;;21.40;64.80;;;;;;215084;1280;24323;-57
2022/11/12 01:50:53;;;;;;;10.60;7.20;;;21.30;64.90;;;;;;214952;1282;24348;-53
2022/11/12 01:56:18;;;;;;;10.10;6.90;;;21.20;64.80;;;;;;214858;1283;24249;-54
2022/11/12 02:01:41;;;;;;;10.40;7.20;;;21.20;65.00;;;;;;215001;1275;23832;-48
2022/11/12 02:07:06;;;;;;;11.60;6.70;;;21.20;65.10;;;;;;214998;1285;22540;-54
2022/11/12 02:18:10;;;;;;;10.40;7.30;;;21.10;65.30;;;;;;215040;1300;24357;-54
2022/11/12 02:23:33;;;;;;;9.10;6.80;;;21.00;65.30;;;;;;214760;1291;25232;-53
2022/11/12 02:28:57;;;;;;;11.40;7.40;;;21.10;65.60;;;;;;214567;1280;22695;-53
2022/11/12 02:34:19;;;;;;;9.30;7.10;;;21.00;65.50;;;;;;214987;1296;25391;-53
2022/11/12 02:39:46;;;;;;;8.80;7.00;;;20.90;65.30;;;;;;214928;1276;22593;-54
2022/11/12 02:45:09;;;;;;;10.10;6.60;;;20.90;65.50;;;;;;214968;1280;25310;-54
2022/11/12 02:50:35;;;;;;;10.00;6.50;;;20.90;65.60;;;;;;214930;1275;22483;-52
2022/11/12 02:55:58;;;;;;;9.00;6.60;;;20.80;65.50;;;;;;215025;1275;26547;-51
2022/11/12 03:01:21;;;;;;;9.80;7.00;;;20.80;65.40;;;;;;215025;1286;25448;-54
2022/11/12 03:06:45;;;;;;;10.10;6.50;;;20.80;65.70;;;;;;214806;1275;24377;-53
2022/11/12 03:12:08;;;;;;;10.20;6.80;;;20.70;65.70;;;;;;214854;1272;23982;-52
2022/11/12 03:17:35;;;;;;;9.80;6.70;;;20.70;65.80;;;;;;214821;1283;24919;-54
2022/11/12 03:23:05;;;;;;;10.20;7.10;;;20.70;65.70;;;;;;215074;1275;24247;-53
2022/11/12 03:28:30;;;;;;;9.70;6.50;;;20.70;65.80;;;;;;214937;1280;23103;-54
2022/11/12 03:33:54;;;;;;;9.60;6.90;;;20.80;65.80;;;;;;214816;1276;24326;-52
2022/11/12 03:39:18;;;;;;;9.10;6.70;;;21.30;65.20;;;;;;214998;1284;23609;-53
2022/11/12 03:44:47;;;;;;;10.00;6.30;;;21.60;63.90;;;;;;214955;1278;22476;-52
2022/11/12 03:50:13;;;;;;;8.00;5.90;;;21.80;63.50;;;;;;215033;1272;24259;-54
2022/11/12 03:55:37;;;;;;;9.60;6.40;;;21.90;62.90;;;;;;215055;1280;24320;-54
2022/11/12 04:01:02;;;;;;;8.80;6.40;;;22.00;62.40;;;;;;215064;1280;23519;-54
2022/11/12 04:23:44;;;;;;;8.80;6.40;;;22.30;61.50;;;;;;214951;1275;24247;-53
2022/11/12 04:35:00;;;;;;;10.30;6.40;;;22.50;61.30;;;;;;214984;1284;22484;-51
2022/11/12 04:46:09;;;;;;;8.20;6.30;;;22.60;60.90;;;;;;214982;1272;23917;-54
2022/11/12 04:57:12;;;;;;;8.80;6.20;;;22.70;60.80;;;;;;214960;1286;24902;-53
2022/11/12 05:02:35;;;;;;;8.20;6.00;;;22.70;60.60;;;;;;214928;1272;24256;-53
2022/11/12 05:07:59;;;;;;;8.90;5.80;;;22.70;60.50;;;;;;214964;1285;23846;-53
2022/11/12 05:13:22;;;;;;;8.40;5.90;;;22.70;60.40;;;;;;214962;1282;25445;-54
2022/11/12 05:18:44;;;;;;;6.60;5.20;;;22.70;60.70;;;;;;214916;1272;24170;-54
2022/11/12 05:24:07;;;;;;;8.50;6.20;;;22.50;60.90;;;;;;214980;1272;24183;-55
2022/11/12 05:29:49;;;;;;;7.70;5.90;;;22.40;61.30;;;;;;214951;1279;25370;-51
2022/11/12 05:35:11;;;;;;;8.40;5.80;;;22.30;61.60;;;;;;214772;1279;22551;-54
2022/11/12 05:40:34;;;;;;;8.50;5.70;;;22.20;62.00;;;;;;214940;1279;24210;-54
2022/11/12 05:45:56;;;;;;;8.00;5.90;;;22.10;62.10;;;;;;214919;1295;26485;-54
2022/11/12 05:51:18;;;;;;;8.50;5.90;;;22.00;62.30;;;;;;215016;1275;23061;-54
2022/11/12 05:56:41;;;;;;;8.50;5.80;;;21.90;62.40;;;;;;214958;1291;25312;-52
2022/11/12 06:02:03;;;;;;;7.90;5.90;;;21.80;62.70;;;;;;214959;1272;25374;-53
2022/11/12 06:07:26;;;;;;;9.70;5.80;;;21.80;62.90;;;;;;214837;1272;26479;-54
2022/11/12 06:12:48;;;;;;;8.50;6.10;;;21.70;62.90;;;;;;214745;1279;197510;-53
2022/11/12 06:18:15;;;;;;;8.60;5.80;;;21.70;63.10;;;;;;214837;1279;23882;-54
2022/11/12 06:23:38;;;;;;;9.00;5.80;;;21.60;63.10;;;;;;214595;1303;26478;-54
2022/11/12 06:29:03;;;;;;;9.00;5.80;;;21.50;63.30;;;;;;214626;1285;22705;-53
2022/11/12 06:34:26;;;;;;;8.50;5.50;;;21.50;63.40;;;;;;214790;1279;25252;-53
2022/11/12 06:39:51;;;;;;;8.40;5.80;;;21.40;63.40;;;;;;214796;1288;26481;-52
2022/11/12 06:45:13;;;;;;;8.20;5.30;;;21.40;63.60;;;;;;214840;1272;22463;-53
2022/11/12 06:50:36;;;;;;;9.20;5.90;;;21.30;63.60;;;;;;214790;1279;25436;-52
2022/11/12 06:56:06;;;;;;;7.20;5.20;;;21.30;63.60;;;;;;214790;1279;24819;-54
2022/11/12 07:01:28;;;;;;;7.40;5.50;;;21.30;63.70;;;;;;214884;1279;25441;-53
2022/11/12 07:06:51;;;;;;;8.70;5.40;;;21.30;63.70;;;;;;214899;1280;22472;-55
2022/11/12 07:12:14;;;;;;;7.50;5.40;;;21.20;63.70;;;;;;214889;1277;23609;-53
2022/11/12 07:17:36;;;;;;;7.70;4.90;;;21.20;63.80;;;;;;215037;1300;25288;-53
2022/11/12 07:23:00;;;;;;;8.20;5.70;;;21.20;63.80;;;;;;214863;1286;26484;-53
2022/11/12 07:28:23;;;;;;;9.10;5.50;;;21.20;63.90;;;;;;214933;1300;24179;-52
2022/11/12 07:33:49;;;;;;;6.70;4.90;;;21.10;63.90;;;;;;214868;1280;25386;-54
2022/11/12 07:39:12;;;;;;;8.50;5.70;;;21.10;63.90;;;;;;215005;1280;23437;-55
2022/11/12 07:44:35;;;;;;;10.40;5.60;;;21.20;64.00;;;;;;214900;1279;25420;-53
2022/11/12 07:49:59;;;;;;;7.10;4.60;;;21.20;63.80;;;;;;214937;1286;25378;-53
2022/11/12 07:55:24;;;;;;;9.50;5.40;;;21.20;63.90;;;;;;214900;1275;24021;-54
2022/11/12 08:00:52;;;;;;;9.40;4.80;;;21.20;64.10;;;;;;214893;1279;23706;-52
2022/11/12 08:06:14;;;;;;;8.80;4.90;;;21.10;64.30;;;;;;214992;1272;24222;-53
2022/11/12 08:11:37;;;;;;;8.30;5.10;;;21.00;64.30;;;;;;214924;1279;24358;-55
2022/11/12 08:17:00;;;;;;;6.40;4.60;;;21.00;64.40;;;;;;214895;1276;22585;-52
2022/11/12 08:22:23;;;;;;;11.00;5.00;;;21.10;64.40;;;;;;214836;1280;22482;-52
2022/11/12 08:27:46;;;;;;;7.40;5.10;;;21.10;64.80;;;;;;214915;1272;24368;-52
2022/11/12 08:33:08;;;;;;;7.80;4.90;;;21.10;64.30;;;;;;214966;1276;25361;-52
2022/11/12 08:38:31;;;;;;;8.40;5.10;;;21.20;64.20;;;;;;214886;1272;22505;-53
2022/11/12 08:43:56;;;;;;;7.70;4.40;;;21.20;64.10;;;;;;214915;1272;24164;-53
2022/11/12 08:49:19;;;;;;;8.60;4.70;;;21.10;64.40;;;;;;214788;1272;25306;-54
2022/11/12 08:54:41;;;;;;;7.20;4.60;;;21.10;64.70;;;;;;214689;1272;23893;-53
2022/11/12 09:00:13;;;;;;;7.70;4.40;;;21.10;64.80;;;;;;214579;1280;25010;-53
2022/11/12 09:05:41;;;;;;;6.80;4.40;;;21.10;64.80;;;;;;214635;1279;22480;-52
2022/11/12 09:11:03;;;;;;;9.60;4.70;;;21.10;64.80;;;;;;214572;1280;23849;-51
2022/11/12 09:16:26;;;;;;;9.10;4.90;;;21.10;64.80;;;;;;214748;1272;23054;-53
2022/11/12 09:21:49;;;;;;;7.60;4.60;;;21.10;64.90;;;;;;214683;1280;23616;-52
2022/11/12 09:27:22;;;;;;;7.30;4.40;;;21.20;64.90;;;;;;214416;1272;24267;-48
2022/11/12 09:32:47;;;;;;;;;;;21.20;64.90;;;;;;214986;1272;22708;-55
2022/11/12 09:38:22;;;;;;;7.60;4.20;;;21.20;64.90;;;;;;214619;1272;24996;-55
2022/11/12 09:44:05;;;;;;;10.60;4.20;;;21.40;63.90;;;;;;216359;1277;22834;-54
2022/11/12 09:50:28;;;;;;;16.00;4.30;;;21.50;64.20;;;;;;215024;1279;22547;-52
2022/11/12 09:56:04;;;;;;;9.50;4.40;;;21.50;64.90;;;;;;215088;1279;22468;-54
2022/11/12 10:01:59;;;;;;;11.50;4.10;;;21.60;65.70;;;;;;214851;1280;25314;-50
2022/11/12 10:08:08;;;;;;;10.30;3.60;;;21.60;65.10;;;;;;214807;1283;22460;-52
2022/11/12 10:13:52;;;;;;;9.70;4.20;;;21.60;65.40;;;;;;215081;1272;23854;-47
2022/11/12 10:19:33;;;;;;;5.70;3.90;;;21.60;64.80;;;;;;214832;1278;23875;-50
2022/11/12 10:25:12;;;;;;;6.40;4.00;;;21.50;65.00;;;;;;214969;1290;23840;-48
2022/11/12 10:30:41;;;;;;;7.10;4.20;;;21.60;63.90;;;;;;214957;1285;22549;-51
2022/11/12 10:36:28;;;;;;;7.70;4.00;;;21.70;64.10;;;;;;214811;1280;24282;-53
2022/11/12 10:42:03;;;;;;;7.30;3.60;;;21.80;64.10;;;;;;214879;1272;24361;-47
2022/11/12 10:47:41;;;;;;;10.40;4.20;;;21.80;62.80;;;;;;214796;1277;25437;-50
2022/11/12 10:53:36;;;;;;;12.10;4.70;;;21.90;62.70;;;;;;214914;1272;22474;-54
2022/11/12 10:59:20;;;;;;;9.20;4.20;;;21.90;62.60;;;;;;214763;1285;22565;-52
2022/11/12 11:04:56;;;;;;;8.30;3.70;;;21.90;62.40;;;;;;214931;1275;22615;-52
2022/11/12 11:10:39;;;;;;;7.00;3.80;;;22.00;62.30;;;;;;214863;1272;28039;-57
2022/11/12 11:16:10;;;;;;;17.60;4.60;;;22.00;62.40;;;;;;214997;1286;22476;-56
2022/11/12 11:21:47;;;;;;;9.70;3.80;;;22.00;62.40;;;;;;214861;1284;24439;-55
2022/11/12 11:27:40;;;;;;;8.00;3.80;;;22.00;62.50;;;;;;214727;1300;22589;-54
2022/11/12 11:33:14;;;;;;;12.00;4.50;;;22.10;61.30;;;;;;214892;1280;25275;-54
2022/11/12 11:38:57;;;;;;;8.00;3.70;;;22.20;61.10;;;;;;214912;1280;22590;-56
2022/11/12 11:44:51;;;;;;;8.30;4.10;;;22.20;61.00;;;;;;214878;1279;24286;-56
2022/11/12 11:50:26;;;;;;;8.60;3.70;;;22.20;60.60;;;;;;214438;1288;22536;-56
2022/11/12 11:56:27;;;;;;;8.60;4.00;;;22.20;60.50;;;;;;215015;1274;24307;-57
2022/11/12 12:02:03;;;;;;;10.80;4.80;;;22.20;62.20;;;;;;214967;1275;25589;-56
2022/11/12 12:07:41;;;;;;;8.40;4.20;;;22.30;62.60;;;;;;214982;1280;23886;-57
2022/11/12 12:13:15;;;;;;;9.30;4.30;;;22.30;62.10;;;;;;214893;1280;25620;-56
2022/11/12 12:19:05;;;;;;;7.00;3.80;;;22.30;61.70;;;;;;215027;1283;24028;-56
2022/11/12 12:24:57;;;;;;;8.10;3.80;;;22.20;61.30;;;;;;215005;1280;22456;-56
2022/11/12 12:30:36;;;;;;;9.50;3.60;;;22.20;61.20;;;;;;215040;1279;23849;-55
2022/11/12 12:36:30;;;;;;;5.90;3.70;;;22.20;60.90;;;;;;214962;1280;22525;-54
2022/11/12 12:42:17;;;;;;;6.50;4.00;;;22.20;60.70;;;;;;214838;1299;26767;-56
2022/11/12 12:47:53;;;;;;;5.50;3.60;;;22.20;60.70;;;;;;214905;1279;23883;-56
2022/11/12 12:53:28;;;;;;;7.50;3.80;;;22.20;60.50;;;;;;214940;1279;23945;-56
2022/11/12 12:59:07;;;;;;;9.80;3.40;;;22.20;60.40;;;;;;214922;1300;23996;-56
2022/11/12 13:04:53;;;;;;;8.80;3.70;;;22.20;60.30;;;;;;214951;1280;25452;-57
2022/11/12 13:10:41;;;;;;;7.30;4.00;;;22.20;60.10;;;;;;214964;1275;25383;-57
2022/11/12 13:16:14;;;;;;;8.60;3.90;;;22.10;60.10;;;;;;215003;1293;26621;-57
2022/11/12 13:21:43;;;;;;;6.00;3.70;;;22.00;60.00;;;;;;215017;1272;24310;-56
2022/11/12 13:27:09;;;;;;;6.30;3.80;;;22.00;60.00;;;;;;215015;1280;24031;-55
2022/11/12 13:32:36;;;;;;;8.40;4.00;;;21.90;60.00;;;;;;214978;1295;24203;-55
2022/11/12 13:38:03;;;;;;;5.80;3.40;;;21.90;60.00;;;;;;214943;1280;22550;-56
2022/11/12 13:43:34;;;;;;;5.60;3.50;;;21.90;59.90;;;;;;214990;1275;23855;-58
2022/11/12 13:49:00;;;;;;;;;;;21.90;60.00;;;;;;215002;1275;26464;-56
2022/11/12 13:54:31;;;;;;;7.50;3.60;;;21.80;60.00;;;;;;214914;1279;24173;-55
2022/11/12 14:00:21;;;;;;;5.70;3.50;;;21.70;59.90;;;;;;214903;1278;25473;-55
2022/11/12 14:05:48;;;;;;;7.30;3.50;;;21.70;59.90;;;;;;214876;1279;23999;-56
2022/11/12 14:11:30;;;;;;;8.20;3.30;;;21.60;59.80;;;;;;214882;1280;24218;-55
2022/11/12 14:17:03;;;;;;;6.20;3.60;;;21.60;59.90;;;;;;214945;1300;25312;-55
2022/11/12 14:22:47;;;;;;;9.20;3.70;;;21.60;60.20;;;;;;214942;1280;26297;-56
2022/11/12 14:28:31;;;;;;;7.10;4.00;;;21.60;60.50;;;;;;214918;1280;25316;-54
2022/11/12 14:33:53;;;;;;;7.50;3.30;;;21.60;60.70;;;;;;214943;1272;26651;-56
2022/11/12 14:39:15;;;;;;;7.70;3.80;;;21.50;60.50;;;;;;214828;1288;22465;-57
2022/11/12 14:44:38;;;;;;;39.60;17.60;;;21.40;60.50;;;;;;214970;1296;25376;-56
2022/11/12 14:50:00;;;;;;;89.50;38.00;;;21.40;60.70;;;;;;214899;1280;25190;-56
2022/11/12 14:55:27;;;;;;;75.80;30.70;;;21.40;60.40;;;;;;215019;1280;25061;-56
2022/11/12 15:00:55;;;;;;;65.60;27.30;;;21.40;61.10;;;;;;214882;1273;25294;-55
2022/11/12 15:06:33;;;;;;;65.00;26.00;;;21.30;60.80;;;;;;215065;1283;25515;-55
2022/11/12 15:11:58;;;;;;;58.30;25.30;;;21.30;61.30;;;;;;214869;1279;26473;-57
2022/11/12 15:17:33;;;;;;;56.90;24.60;;;21.40;62.00;;;;;;214959;1291;25231;-56
2022/11/12 15:23:00;;;;;;;51.10;22.50;;;21.40;62.10;;;;;;214934;1282;22476;-55
2022/11/12 15:28:54;;;;;;;46.60;21.90;;;21.40;62.40;;;;;;214898;1286;24428;-55
2022/11/12 15:34:40;;;;;;;52.70;21.80;;;21.40;62.10;;;;;;214035;1286;22467;-57
2022/11/12 15:40:17;;;;;;;49.00;21.00;;;21.30;62.60;;;;;;214921;1275;22469;-57
2022/11/12 15:45:49;;;;;;;42.00;18.30;;;21.40;63.00;;;;;;214949;1276;24275;-55
2022/11/12 15:51:18;;;;;;;39.50;16.90;;;21.40;62.80;;;;;;214884;1272;22468;-51
2022/11/12 15:56:54;;;;;;;42.60;17.60;;;21.40;63.60;;;;;;214801;1275;22456;-52
2022/11/12 16:02:23;;;;;;;34.90;15.20;;;21.30;63.30;;;;;;215002;1276;24344;-55
2022/11/12 16:07:54;;;;;;;31.00;14.00;;;21.20;63.80;;;;;;214854;1279;25348;-52
2022/11/12 16:13:36;;;;;;;33.90;15.90;;;21.20;64.30;;;;;;214799;1284;22586;-50
2022/11/12 16:18:58;;;;;;;35.60;15.70;;;21.10;64.10;;;;;;214791;1271;22598;-53
2022/11/12 16:24:23;;;;;;;31.70;14.70;;;21.20;64.20;;;;;;214615;1278;23886;-53
2022/11/12 16:29:50;;;;;;;38.40;14.80;;;21.10;64.40;;;;;;214766;1279;24228;-54
2022/11/12 16:35:22;;;;;;;27.10;11.90;;;21.10;64.50;;;;;;214738;1278;24336;-49
2022/11/12 16:40:46;;;;;;;28.10;12.20;;;21.10;64.60;;;;;;214667;1279;23886;-56
2022/11/12 16:46:24;;;;;;;26.30;12.00;;;21.50;64.10;;;;;;214867;1288;23917;-54
2022/11/12 16:51:49;;;;;;;26.60;12.30;;;21.50;64.00;;;;;;214937;1278;24178;-57
2022/11/12 16:57:12;;;;;;;24.50;11.30;;;21.40;64.30;;;;;;214907;1278;23886;-57
2022/11/12 17:02:35;;;;;;;18.30;10.10;;;21.20;64.30;;;;;;214869;1279;22448;-56
2022/11/12 17:08:08;;;;;;;23.20;10.60;;;21.20;64.70;;;;;;214822;1276;24295;-61
2022/11/12 17:13:33;;;;;;;21.40;10.30;;;21.10;65.10;;;;;;214948;1283;23848;-57
2022/11/12 17:19:00;;;;;;;20.10;10.10;;;21.10;65.10;;;;;;214880;1300;25488;-57
2022/11/12 17:24:29;;;;;;;22.20;9.70;;;21.10;65.70;;;;;;214702;1275;22513;-56
2022/11/12 17:29:52;;;;;;;25.00;11.10;;;21.00;65.80;;;;;;214767;1282;23565;-56
2022/11/12 17:35:16;;;;;;;18.60;8.90;;;21.10;66.50;;;;;;214830;1283;22476;-56
2022/11/12 17:40:39;;;;;;;18.50;8.40;;;21.20;65.30;;;;;;214724;1288;23893;-52
2022/11/12 17:46:07;;;;;;;21.80;9.70;;;21.20;65.20;;;;;;214857;1275;24340;-54
2022/11/12 17:51:32;;;;;;;20.10;9.00;;;21.10;65.10;;;;;;214888;1283;22996;-50
2022/11/12 17:56:57;;;;;;;15.00;8.30;;;21.10;65.20;;;;;;214926;1300;22982;-52
2022/11/12 18:02:19;;;;;;;20.20;9.60;;;20.90;64.50;;;;;;215003;1283;26562;-53
2022/11/12 18:07:41;;;;;;;17.30;8.70;;;21.00;64.80;;;;;;214777;1283;22480;-52
2022/11/12 18:13:03;;;;;;;14.40;8.60;;;20.90;65.10;;;;;;214743;1275;194346;-53
2022/11/12 18:18:29;;;;;;;17.80;8.00;;;20.90;64.60;;;;;;214967;1283;22556;-53
2022/11/12 18:24:12;;;;;;;14.00;8.10;;;20.80;64.60;;;;;;214943;1275;25399;-52
2022/11/12 18:29:36;;;;;;;15.20;7.70;;;20.80;64.60;;;;;;214887;1279;25552;-54
2022/11/12 18:35:00;;;;;;;15.70;8.40;;;20.80;64.60;;;;;;214831;1297;24006;-53
2022/11/12 18:40:26;;;;;;;14.60;8.40;;;20.70;64.50;;;;;;214771;1280;25309;-52
2022/11/12 18:45:57;;;;;;;12.70;7.60;;;20.70;64.50;;;;;;214806;1291;24253;-52
2022/11/12 18:51:20;;;;;;;12.10;7.40;;;20.70;64.50;;;;;;214822;1283;26476;-52
2022/11/12 18:56:42;;;;;;;16.20;7.80;;;20.70;64.50;;;;;;214863;1283;25326;-55
2022/11/12 19:02:05;;;;;;;12.90;7.50;;;20.60;64.40;;;;;;214870;1292;25299;-52
2022/11/12 19:07:28;;;;;;;14.50;7.50;;;20.60;64.50;;;;;;215124;1301;26483;-53
2022/11/12 19:12:55;;;;;;;11.00;7.20;;;20.80;64.50;;;;;;214910;1282;24315;-53
2022/11/12 19:18:20;;;;;;;13.30;7.10;;;21.00;63.80;;;;;;214952;1283;24232;-52
2022/11/12 19:23:47;;;;;;;11.70;6.30;;;21.30;63.30;;;;;;214972;1284;22483;-53
2022/11/12 19:29:16;;;;;;;12.80;7.10;;;21.50;62.80;;;;;;214957;1275;23874;-53
2022/11/12 19:34:40;;;;;;;13.40;6.60;;;21.60;62.50;;;;;;214843;1284;22448;-53
2022/11/12 19:40:04;;;;;;;14.50;7.00;;;21.70;62.60;;;;;;214902;1280;23427;-51
2022/11/12 19:45:29;;;;;;;15.10;7.20;;;21.80;61.90;;;;;;214943;1280;22481;-51
2022/11/12 19:51:05;;;;;;;12.40;7.10;;;21.90;62.30;;;;;;214857;1272;26933;-55
2022/11/12 19:56:37;;;;;;;12.90;7.30;;;22.00;62.70;;;;;;214932;1280;25442;-52
2022/11/12 20:02:00;;;;;;;10.40;6.90;;;22.20;62.00;;;;;;214996;1279;25447;-55
2022/11/12 20:07:22;;;;;;;12.60;6.70;;;22.20;61.80;;;;;;214889;1286;25729;-54
2022/11/12 20:12:47;;;;;;;12.40;7.70;;;22.20;61.40;;;;;;214832;1280;25320;-54
2022/11/12 20:18:09;;;;;;;10.70;7.40;;;22.20;61.70;;;;;;214830;1280;25352;-57
2022/11/12 20:23:33;;;;;;;11.50;7.20;;;22.30;61.40;;;;;;214773;1280;23961;-55
2022/11/12 20:28:57;;;;;;;11.00;7.40;;;22.30;61.30;;;;;;214842;1285;25324;-55
2022/11/12 20:34:22;;;;;;;11.00;7.30;;;22.30;61.30;;;;;;214794;1279;23838;-55
2022/11/12 20:39:44;;;;;;;12.90;7.90;;;22.30;61.30;;;;;;214792;1280;23876;-55
2022/11/12 20:45:24;;;;;;;12.20;7.50;;;22.30;61.70;;;;;;214822;1285;25655;-55
2022/11/12 20:50:47;;;;;;;18.80;8.50;;;22.20;61.40;;;;;;214710;1272;25371;-56
2022/11/12 20:56:31;;;;;;;13.90;7.70;;;22.20;62.30;;;;;;214852;1278;22556;-56
2022/11/12 21:01:58;;;;;;;20.70;8.10;;;22.10;62.80;;;;;;214445;1280;25300;-56
2022/11/12 21:07:42;;;;;;;22.30;8.20;;;22.10;63.80;;;;;;214524;1278;22482;-56
2022/11/12 21:13:07;;;;;;;14.70;7.60;;;22.00;63.40;;;;;;214715;1285;25661;-56
2022/11/12 21:18:43;;;;;;;15.00;9.10;;;21.90;63.70;;;;;;214526;1278;24250;-55
2022/11/12 21:24:16;;;;;;;16.20;8.20;;;21.80;63.70;;;;;;214526;1279;23878;-57
2022/11/12 21:29:39;;;;;;;19.00;8.70;;;21.80;63.90;;;;;;214511;1280;26681;-55
2022/11/12 21:35:01;;;;;;;12.10;8.30;;;21.70;64.10;;;;;;214567;1278;26597;-55
2022/11/12 21:40:25;;;;;;;11.80;7.80;;;21.70;64.20;;;;;;214619;1278;25433;-56
2022/11/12 21:45:47;;;;;;;14.70;8.30;;;21.60;64.50;;;;;;214623;1271;25295;-56
2022/11/12 21:51:12;;;;;;;13.10;7.90;;;21.60;64.60;;;;;;214518;1279;26531;-54
2022/11/12 21:56:36;;;;;;;14.50;7.00;;;21.50;64.70;;;;;;214590;1279;25328;-57
2022/11/12 22:02:01;;;;;;;22.60;7.90;;;21.60;66.80;;;;;;214637;1279;26476;-56
2022/11/12 22:07:28;;;;;;;21.10;7.50;;;21.60;68.20;;;;;;214656;1278;22562;-55
2022/11/12 22:12:52;;;;;;;15.80;8.50;;;21.60;67.90;;;;;;214484;1286;24292;-58
2022/11/12 22:18:36;;;;;;;11.70;8.80;;;21.50;67.80;;;;;;214590;1278;25280;-57
2022/11/12 22:23:59;;;;;;;13.60;8.40;;;21.50;67.70;;;;;;214619;1279;24002;-58
2022/11/12 22:29:21;;;;;;;12.50;7.50;;;21.50;68.40;;;;;;214502;1279;25304;-55
2022/11/12 22:34:44;;;;;;;15.60;7.70;;;21.50;68.30;;;;;;214558;1279;25496;-56
2022/11/12 22:40:11;;;;;;;13.20;7.60;;;21.40;68.80;;;;;;214540;1272;25443;-55
2022/11/12 22:45:38;;;;;;;14.90;8.00;;;21.40;68.50;;;;;;214607;1272;24154;-55
2022/11/12 22:51:17;;;;;;;12.50;7.20;;;21.40;68.70;;;;;;214661;1279;22566;-55
2022/11/12 22:56:43;;;;;;;13.80;7.10;;;21.40;68.80;;;;;;214826;1286;25501;-56
2022/11/12 23:02:13;;;;;;;10.30;6.80;;;21.30;68.70;;;;;;214686;1273;23994;-57
2022/11/12 23:07:54;;;;;;;13.00;6.90;;;21.30;68.50;;;;;;214607;1278;23201;-56
2022/11/12 23:13:17;;;;;;;11.70;7.20;;;21.30;68.70;;;;;;214885;1277;22750;-55
2022/11/12 23:18:40;;;;;;;9.30;6.40;;;21.20;68.60;;;;;;214684;1280;23609;-56
2022/11/12 23:24:03;;;;;;;14.10;7.20;;;21.20;68.60;;;;;;214594;1272;25393;-55
2022/11/12 23:29:25;;;;;;;10.60;7.20;;;21.20;68.60;;;;;;214695;1271;26596;-54
2022/11/12 23:34:47;;;;;;;10.30;6.60;;;21.20;68.70;;;;;;214672;1288;22462;-57
2022/11/12 23:40:09;;;;;;;10.50;6.40;;;21.20;68.60;;;;;;214741;1271;26632;-55
2022/11/12 23:45:37;;;;;;;12.60;6.40;;;21.20;68.70;;;;;;214710;1280;25334;-56
2022/11/12 23:51:05;;;;;;;10.20;6.40;;;21.20;68.60;;;;;;214763;1286;23908;-54
2022/11/12 23:56:28;;;;;;;12.20;6.50;;;21.10;68.50;;;;;;214798;1272;25333;-56
